메인 페이지
METAR-TAF:

METAR-TAF

공항 :

양양국제공항

양양군, 대한민국

위도: 38-03-41N, 경도: 128-40-09E, 고도: 73m

현재 날씨관측

예보는 9분 전, 17:19시(UTC)에 발표되었습니다.
11kt
온도 13°C
습도 82%
기압 1017 hPa
시정: 9000m

METAR: RKNY 171719Z AUTO 08011KT 9000 RA ///021/// 13/10 Q1017

시각: 02:28 (17:28 UTC)

예보

예보는 6 시간 28분 전, 11:00시(UTC)에 발표되었습니다.
예보 대상 시간: 17일 12시부터 18일 18시까지 (UTC)
서북서6kt
시정: 6000m
고도 1000ft 상공 구름 조금
고도 2500ft 상공 구름 많음
고도 8000ft 상공 흐림
약한비
일시적
17일 13시부터 17일 18시까지 (UTC)
6kt
시정: 4200m
전환 중
17일 22시부터 17일 23시까지 (UTC)
북북동10kt

TAF: RKNY 171100Z 1712/1818 30006KT 6000 -RA FEW010 BKN025 OVC080 TN11/1721Z TX14/1805Z TEMPO 1713/1718 10006KT 4200 RA BECMG 1722/1723 03010KT

4,000개 이상의 공항 관측 자료 및 예보 (METAR 및 TAF 보고).

지도상에서 검색 가능한 기상관측소가 노란 점과 빨간 점으로 표시되어 있습니다.

기상관측소 명을 보려면 표시 위로 마우스를 이동하세요.

날씨 관측과 예보를 보려면 클릭하세요.

지도 변경 : 확대하려면 엑스 표시가 있는 녹색 버튼, 축소하려면 빼기 표시가 있는 녹색 버튼, 다음 페이지의 지도를 보려면 녹색 화살표를 클릭하세요.


METAR-TAF: